createdAt,value
2022-07-31T00:00:23.863Z,98871.03
2022-07-31T00:02:51.719Z,98885.31
2022-07-31T00:05:19.373Z,98875.75
2022-07-31T00:07:48.734Z,98872.53
2022-07-31T00:10:18.749Z,98883.25
2022-07-31T00:12:46.370Z,98883.22
2022-07-31T00:15:13.978Z,98881.31
2022-07-31T00:17:41.869Z,98870.22
2022-07-31T00:20:13.299Z,98871.38
2022-07-31T00:22:40.989Z,98884.34
2022-07-31T00:25:12.623Z,98877.47
2022-07-31T00:27:40.274Z,98875.47
2022-07-31T00:30:08.930Z,98877.50
2022-07-31T00:32:36.595Z,98873.19
2022-07-31T00:35:04.453Z,98870.19
2022-07-31T00:37:32.670Z,98873.44
2022-07-31T00:40:00.359Z,98867.97
2022-07-31T00:42:29.386Z,98871.00
2022-07-31T00:44:57.225Z,98873.03
2022-07-31T00:47:27.218Z,98873.88
2022-07-31T00:49:56.920Z,98868.31
2022-07-31T00:52:25.167Z,98869.63
2022-07-31T00:54:52.960Z,98869.88
2022-07-31T00:57:20.665Z,98867.38
2022-07-31T00:59:49.692Z,98873.03
2022-07-31T01:02:17.276Z,98877.09
2022-07-31T01:04:46.926Z,98880.28
2022-07-31T01:07:14.519Z,98883.94
2022-07-31T01:09:42.564Z,98876.53
2022-07-31T01:12:14.165Z,98878.78
2022-07-31T01:14:44.758Z,98882.44
2022-07-31T01:17:14.740Z,98878.28
2022-07-31T01:19:44.318Z,98886.78
2022-07-31T01:22:34.190Z,98879.06
2022-07-31T01:25:06.932Z,98873.94
2022-07-31T01:28:03.768Z,98876.59
2022-07-31T01:30:46.197Z,98875.91
2022-07-31T01:33:16.225Z,98879.97
2022-07-31T01:35:46.760Z,98885.94
2022-07-31T01:38:16.569Z,98885.41
2022-07-31T01:40:46.540Z,98880.06
2022-07-31T01:43:17.233Z,98882.22
2022-07-31T01:45:48.622Z,98875.72
2022-07-31T01:48:17.154Z,98877.00
2022-07-31T01:50:45.982Z,98880.75
2022-07-31T01:53:14.909Z,98879.16
2022-07-31T01:55:56.421Z,98883.97
2022-07-31T01:58:34.379Z,98877.94
2022-07-31T02:01:08.818Z,98879.38
2022-07-31T02:03:43.651Z,98875.09
2022-07-31T02:06:15.956Z,98880.81
2022-07-31T02:08:45.274Z,98882.81
2022-07-31T02:11:15.976Z,98877.63
2022-07-31T02:13:44.807Z,98870.84
2022-07-31T02:16:14.330Z,98872.97
2022-07-31T02:18:43.301Z,98875.66
2022-07-31T02:21:16.408Z,98879.16
2022-07-31T02:23:45.228Z,98870.59
2022-07-31T02:26:15.592Z,98875.56
2022-07-31T02:28:44.748Z,98866.88
2022-07-31T02:31:13.227Z,98867.69
2022-07-31T02:33:43.449Z,98869.13
2022-07-31T02:36:14.118Z,98869.13
2022-07-31T02:38:43.050Z,98866.06
2022-07-31T02:41:11.303Z,98870.63
2022-07-31T02:43:39.746Z,98864.56
2022-07-31T02:46:28.610Z,98866.25
2022-07-31T02:48:57.990Z,98862.31
2022-07-31T02:51:25.823Z,98862.16
2022-07-31T02:53:54.447Z,98861.31
2022-07-31T02:56:25.511Z,98861.09
2022-07-31T02:58:54.923Z,98860.38
2022-07-31T03:01:27.669Z,98861.69
2022-07-31T03:03:58.693Z,98864.78
2022-07-31T03:06:29.001Z,98864.38
2022-07-31T03:08:56.694Z,98860.06
2022-07-31T03:11:25.617Z,98861.44
2022-07-31T03:13:54.852Z,98859.13
2022-07-31T03:16:23.655Z,98867.59
2022-07-31T03:18:51.992Z,98868.75
2022-07-31T03:21:21.213Z,98874.38
2022-07-31T03:23:48.975Z,98864.59
2022-07-31T03:26:21.417Z,98862.09
2022-07-31T03:28:49.603Z,98864.88
2022-07-31T03:31:17.296Z,98870.03
2022-07-31T03:33:45.055Z,98862.59
2022-07-31T03:36:15.063Z,98863.28
2022-07-31T03:38:48.777Z,98856.28
2022-07-31T03:41:34.951Z,98858.75
2022-07-31T03:44:03.211Z,98859.44
2022-07-31T03:46:37.315Z,98858.00
2022-07-31T03:49:05.491Z,98858.84
2022-07-31T03:51:34.990Z,98866.84
2022-07-31T03:54:04.150Z,98874.88
2022-07-31T03:56:45.554Z,98874.69
2022-07-31T03:59:15.831Z,98873.56
2022-07-31T04:01:57.455Z,98873.66
2022-07-31T04:04:58.830Z,98877.56
2022-07-31T04:07:26.814Z,98869.88
2022-07-31T04:09:56.371Z,98874.81
2022-07-31T04:12:24.007Z,98873.38
2022-07-31T04:14:51.764Z,98872.97
2022-07-31T04:17:20.900Z,98872.69
2022-07-31T04:19:49.557Z,98874.25
2022-07-31T04:22:17.236Z,98874.31
2022-07-31T04:24:45.735Z,98860.28
2022-07-31T04:27:45.639Z,98872.00
2022-07-31T04:30:16.244Z,98871.94
2022-07-31T04:32:44.957Z,98869.44
2022-07-31T04:35:15.885Z,98866.13
2022-07-31T04:37:48.214Z,98870.94
2022-07-31T04:40:17.110Z,98875.19
2022-07-31T04:42:46.145Z,98875.06
2022-07-31T04:45:13.885Z,98878.53
2022-07-31T04:47:43.939Z,98888.22
2022-07-31T04:50:12.009Z,98884.25
2022-07-31T04:52:55.326Z,98888.22
2022-07-31T04:55:24.312Z,98888.00
2022-07-31T04:57:53.507Z,98892.34
2022-07-31T05:00:21.289Z,98889.22
2022-07-31T05:02:51.395Z,98893.44
2022-07-31T05:05:19.680Z,98888.19
2022-07-31T05:07:48.288Z,98890.66
2022-07-31T05:10:47.303Z,98891.09
2022-07-31T05:13:16.876Z,98891.56
2022-07-31T05:15:44.512Z,98894.81
2022-07-31T05:18:12.927Z,98885.53
2022-07-31T05:20:44.068Z,98885.59
2022-07-31T05:23:30.525Z,98878.22
2022-07-31T05:26:24.662Z,98876.41
2022-07-31T05:28:58.273Z,98878.09
2022-07-31T05:31:28.770Z,98872.47
2022-07-31T05:33:59.089Z,98878.47
2022-07-31T05:36:27.115Z,98881.03
2022-07-31T05:38:54.883Z,98877.53
2022-07-31T05:41:49.106Z,98879.91
2022-07-31T05:44:18.448Z,98882.28
2022-07-31T05:46:47.571Z,98887.97
2022-07-31T05:49:16.214Z,98888.47
2022-07-31T05:51:53.928Z,98880.31
2022-07-31T05:54:23.940Z,98894.38
2022-07-31T05:57:10.138Z,98888.69
2022-07-31T05:59:43.884Z,98883.38
2022-07-31T06:02:11.978Z,98883.69
2022-07-31T06:04:55.478Z,98884.88
2022-07-31T06:07:23.757Z,98885.69
2022-07-31T06:09:52.648Z,98890.75
2022-07-31T06:12:20.438Z,98887.38
2022-07-31T06:14:49.486Z,98892.03
2022-07-31T06:17:44.109Z,98891.19
2022-07-31T06:20:24.687Z,98901.56
2022-07-31T06:22:52.994Z,98901.56
2022-07-31T06:25:28.738Z,98899.69
2022-07-31T06:28:01.034Z,98903.09
2022-07-31T06:30:33.761Z,98908.78
2022-07-31T06:33:01.494Z,98900.97
2022-07-31T06:35:36.939Z,98912.03
2022-07-31T06:38:24.387Z,98909.25
2022-07-31T06:41:10.679Z,98904.81
2022-07-31T06:43:48.964Z,98909.63
2022-07-31T06:46:36.304Z,98908.56
2022-07-31T06:49:31.286Z,98910.22
2022-07-31T06:52:01.897Z,98915.22
2022-07-31T06:54:33.626Z,98905.09
2022-07-31T06:57:01.629Z,98913.72
2022-07-31T06:59:39.915Z,98923.16
2022-07-31T07:02:10.195Z,98909.88
2022-07-31T07:05:04.674Z,98902.56
2022-07-31T07:07:31.377Z,98904.50
2022-07-31T07:10:00.454Z,98897.13
2022-07-31T07:12:46.789Z,98891.28
2022-07-31T07:15:17.929Z,98896.81
2022-07-31T07:17:47.030Z,98895.88
2022-07-31T07:20:20.145Z,98886.97
2022-07-31T07:22:47.911Z,98886.06
2022-07-31T07:25:27.863Z,98885.50
2022-07-31T07:27:58.965Z,98889.50
2022-07-31T07:30:28.528Z,98884.84
2022-07-31T07:33:00.971Z,98891.75
2022-07-31T07:35:33.765Z,98890.03
2022-07-31T07:38:05.220Z,98890.88
2022-07-31T07:40:33.754Z,98896.88
2022-07-31T07:43:03.264Z,98896.94
2022-07-31T07:45:32.127Z,98896.44
2022-07-31T07:48:06.672Z,98898.25
2022-07-31T07:51:04.778Z,98892.47
2022-07-31T07:53:42.206Z,98895.50
2022-07-31T07:56:28.956Z,98891.31
2022-07-31T07:59:05.870Z,98888.50
2022-07-31T08:02:20.784Z,98888.25
2022-07-31T08:04:50.458Z,98895.16
2022-07-31T08:07:42.134Z,98880.06
2022-07-31T08:10:30.911Z,98881.63
2022-07-31T08:13:12.996Z,98886.84
2022-07-31T08:15:59.283Z,98880.31
2022-07-31T08:18:31.781Z,98888.84
2022-07-31T08:21:01.204Z,98882.78
2022-07-31T08:23:29.384Z,98889.25
2022-07-31T08:25:57.209Z,98889.31
2022-07-31T08:28:26.836Z,98885.56
2022-07-31T08:30:56.820Z,98885.03
2022-07-31T08:33:26.784Z,98881.03
2022-07-31T08:35:58.459Z,98879.44
2022-07-31T08:38:28.760Z,98870.56
2022-07-31T08:41:22.714Z,98870.72
2022-07-31T08:44:01.498Z,98867.34
2022-07-31T08:46:33.376Z,98873.84
2022-07-31T08:49:02.106Z,98865.22
2022-07-31T08:51:30.217Z,98865.56
2022-07-31T08:54:26.206Z,98860.53
2022-07-31T08:56:54.370Z,98865.41
2022-07-31T08:59:23.076Z,98866.41
2022-07-31T09:01:53.028Z,98858.88
2022-07-31T09:04:20.829Z,98861.97
2022-07-31T09:06:48.654Z,98848.53
2022-07-31T09:09:16.643Z,98856.03
2022-07-31T09:11:49.517Z,98851.81
2022-07-31T09:14:37.093Z,98850.84
2022-07-31T09:17:09.484Z,98857.38
2022-07-31T09:19:52.080Z,98841.94
2022-07-31T09:22:30.223Z,98848.22
2022-07-31T09:25:12.832Z,98840.66
2022-07-31T09:27:42.670Z,98834.09
2022-07-31T09:30:11.776Z,98831.06
2022-07-31T09:33:16.596Z,98828.03
2022-07-31T09:36:02.988Z,98834.28
2022-07-31T09:38:35.394Z,98831.28
2022-07-31T09:41:53.678Z,98834.06
2022-07-31T09:44:09.934Z,98822.72
2022-07-31T09:46:41.977Z,98824.50
2022-07-31T09:49:10.923Z,98819.03
2022-07-31T09:51:41.407Z,98812.47
2022-07-31T09:54:22.053Z,98808.72
2022-07-31T09:57:14.269Z,98823.94
2022-07-31T09:59:50.120Z,98806.31
2022-07-31T10:02:21.166Z,98802.78
2022-07-31T10:04:53.989Z,98810.34
2022-07-31T10:07:32.231Z,98798.13
2022-07-31T10:10:08.013Z,98793.56
2022-07-31T10:13:03.092Z,98781.06
2022-07-31T10:15:36.682Z,98789.00
2022-07-31T10:18:44.301Z,98789.34
2022-07-31T10:21:38.650Z,98782.94
2022-07-31T10:24:22.827Z,98768.75
2022-07-31T10:27:00.759Z,98765.41
2022-07-31T10:29:33.342Z,98775.00
2022-07-31T10:32:07.847Z,98774.50
2022-07-31T10:34:39.510Z,98778.78
2022-07-31T10:37:33.393Z,98776.59
2022-07-31T10:40:28.668Z,98772.63
2022-07-31T10:43:18.346Z,98766.31
2022-07-31T10:45:55.802Z,98761.19
2022-07-31T10:48:53.724Z,98759.88
2022-07-31T10:51:49.595Z,98766.22
2022-07-31T10:54:42.416Z,98754.56
2022-07-31T10:57:31.433Z,98753.84
2022-07-31T11:00:20.871Z,98749.13
2022-07-31T11:03:16.862Z,98748.47
2022-07-31T11:06:05.412Z,98742.25
2022-07-31T11:08:54.639Z,98744.66
2022-07-31T11:11:41.587Z,98733.34
2022-07-31T11:14:35.768Z,98734.09
2022-07-31T11:18:23.679Z,98737.63
2022-07-31T11:20:28.490Z,98732.13
2022-07-31T11:23:01.453Z,98731.59
2022-07-31T11:25:31.029Z,98726.53
2022-07-31T11:27:59.415Z,98727.41
2022-07-31T11:30:27.316Z,98718.00
2022-07-31T11:32:55.141Z,98717.84
2022-07-31T11:35:30.302Z,98709.91
2022-07-31T11:38:00.147Z,98715.84
2022-07-31T11:40:28.521Z,98715.66
2022-07-31T11:43:27.205Z,98709.13
2022-07-31T11:45:49.554Z,98695.22
2022-07-31T11:48:21.982Z,98687.59
2022-07-31T11:50:51.292Z,98676.00
2022-07-31T11:53:21.249Z,98681.56
2022-07-31T11:55:51.461Z,98679.81
2022-07-31T11:58:21.656Z,98680.09
2022-07-31T12:00:54.139Z,98681.81
2022-07-31T12:03:26.536Z,98672.09
2022-07-31T12:05:55.000Z,98667.59
2022-07-31T12:08:26.026Z,98675.41
2022-07-31T12:10:54.707Z,98674.44
2022-07-31T12:13:24.260Z,98657.50
2022-07-31T12:15:57.430Z,98663.63
2022-07-31T12:18:26.457Z,98657.59
2022-07-31T12:20:56.888Z,98654.13
2022-07-31T12:23:41.010Z,98659.75
2022-07-31T12:26:12.152Z,98653.53
2022-07-31T12:28:40.075Z,98651.44
2022-07-31T12:31:07.879Z,98655.06
2022-07-31T12:33:42.453Z,98643.78
2022-07-31T12:36:15.501Z,98643.88
2022-07-31T12:38:48.290Z,98650.09
2022-07-31T12:41:17.276Z,98653.25
2022-07-31T12:43:51.835Z,98648.78
2022-07-31T12:46:36.570Z,98633.28
2022-07-31T12:49:05.280Z,98637.69
2022-07-31T12:51:45.061Z,98631.00
2022-07-31T12:54:16.944Z,98636.13
2022-07-31T12:56:45.309Z,98622.28
2022-07-31T12:59:13.658Z,98620.97
2022-07-31T13:01:41.539Z,98616.09
2022-07-31T13:04:18.230Z,98613.44
2022-07-31T13:06:48.803Z,98605.81
2022-07-31T13:09:18.962Z,98616.72
2022-07-31T13:11:48.439Z,98612.91
2022-07-31T13:14:17.249Z,98620.41
2022-07-31T13:16:45.759Z,98609.97
2022-07-31T13:19:14.025Z,98602.25
2022-07-31T13:21:49.207Z,98595.63
2022-07-31T13:24:20.527Z,98583.38
2022-07-31T13:26:49.840Z,98577.84
2022-07-31T13:29:18.529Z,98572.00
2022-07-31T13:31:46.757Z,98573.19
2022-07-31T13:34:14.969Z,98569.63
2022-07-31T13:36:44.874Z,98562.66
2022-07-31T13:39:12.870Z,98555.69
2022-07-31T13:41:42.483Z,98551.66
2022-07-31T13:44:10.489Z,98550.34
2022-07-31T13:46:40.852Z,98554.94
2022-07-31T13:49:10.431Z,98554.63
2022-07-31T13:51:39.088Z,98543.84
2022-07-31T13:54:07.557Z,98553.59
2022-07-31T13:56:42.424Z,98552.44
2022-07-31T13:59:14.400Z,98545.84
2022-07-31T14:02:02.999Z,98543.47
2022-07-31T14:04:38.441Z,98538.44
2022-07-31T14:07:07.891Z,98536.56
2022-07-31T14:09:37.765Z,98545.94
2022-07-31T14:12:06.875Z,98538.28
2022-07-31T14:14:36.614Z,98539.66
2022-07-31T14:17:04.673Z,98523.25
2022-07-31T14:19:40.628Z,98526.59
2022-07-31T14:22:13.320Z,98523.56
2022-07-31T14:24:43.279Z,98535.44
2022-07-31T14:27:20.869Z,98535.50
2022-07-31T14:29:50.703Z,98529.31
2022-07-31T14:32:19.630Z,98526.13
2022-07-31T14:34:47.889Z,98516.56
2022-07-31T14:37:15.782Z,98522.72
2022-07-31T14:39:43.578Z,98527.22
2022-07-31T14:42:12.647Z,98523.56
2022-07-31T14:44:42.552Z,98514.16
2022-07-31T14:47:12.361Z,98512.63
2022-07-31T14:50:08.731Z,98515.13
2022-07-31T14:52:30.888Z,98511.19
2022-07-31T14:55:01.677Z,98514.03
2022-07-31T14:57:31.727Z,98512.03
2022-07-31T15:00:01.533Z,98499.97
2022-07-31T15:02:30.730Z,98494.38
2022-07-31T15:06:38.649Z,98503.47
2022-07-31T15:07:49.291Z,98498.94
2022-07-31T15:10:21.847Z,98487.63
2022-07-31T15:12:51.102Z,98485.56
2022-07-31T15:15:19.143Z,98484.31
2022-07-31T15:17:48.356Z,98483.66
2022-07-31T15:20:18.532Z,98495.28
2022-07-31T15:22:46.395Z,98491.50
2022-07-31T15:25:14.996Z,98488.03
2022-07-31T15:27:42.812Z,98485.94
2022-07-31T15:30:11.662Z,98488.38
2022-07-31T15:32:40.390Z,98495.88
2022-07-31T15:35:12.441Z,98491.31
2022-07-31T15:37:41.836Z,98490.09
2022-07-31T15:40:12.119Z,98477.09
2022-07-31T15:42:41.916Z,98479.75
2022-07-31T15:45:14.080Z,98468.38
2022-07-31T15:47:43.250Z,98481.66
2022-07-31T15:50:15.299Z,98471.13
2022-07-31T15:52:43.562Z,98467.41
2022-07-31T15:55:11.813Z,98463.91
2022-07-31T15:57:40.257Z,98460.88
2022-07-31T16:00:10.556Z,98462.53
2022-07-31T16:02:39.778Z,98468.63
2022-07-31T16:05:36.187Z,98461.38
2022-07-31T16:08:32.330Z,98466.72
2022-07-31T16:10:53.951Z,98456.34
2022-07-31T16:13:25.824Z,98452.72
2022-07-31T16:15:54.605Z,98450.59
2022-07-31T16:18:22.490Z,98448.91
2022-07-31T16:20:53.117Z,98449.88
2022-07-31T16:23:20.994Z,98445.13
2022-07-31T16:25:48.835Z,98446.88
2022-07-31T16:28:16.606Z,98446.13
2022-07-31T16:30:45.632Z,98449.97
2022-07-31T16:33:13.460Z,98443.56
2022-07-31T16:35:43.470Z,98439.63
2022-07-31T16:38:12.734Z,98434.06
2022-07-31T16:40:43.104Z,98435.03
2022-07-31T16:43:49.694Z,98437.09
2022-07-31T16:45:59.252Z,98434.00
2022-07-31T16:48:28.113Z,98429.28
2022-07-31T16:50:55.970Z,98430.97
2022-07-31T16:54:11.544Z,98436.31
2022-07-31T16:56:17.251Z,98433.03
2022-07-31T16:58:45.132Z,98434.19
2022-07-31T17:01:59.371Z,98435.50
2022-07-31T17:04:04.617Z,98434.75
2022-07-31T17:06:36.611Z,98430.78
2022-07-31T17:09:15.864Z,98424.50
2022-07-31T17:11:48.127Z,98432.59
2022-07-31T17:14:16.314Z,98430.50
2022-07-31T17:16:47.677Z,98432.78
2022-07-31T17:19:41.172Z,98431.91
2022-07-31T17:22:07.357Z,98429.72
2022-07-31T17:24:37.850Z,98427.41
2022-07-31T17:27:07.415Z,98426.09
2022-07-31T17:29:36.113Z,98430.47
2022-07-31T17:32:04.580Z,98432.03
2022-07-31T17:34:32.446Z,98433.84
2022-07-31T17:37:02.981Z,98429.56
2022-07-31T17:39:31.410Z,98437.00
2022-07-31T17:42:00.787Z,98438.03
2022-07-31T17:44:28.697Z,98444.28
2022-07-31T17:46:58.037Z,98436.16
2022-07-31T17:49:27.331Z,98437.47
2022-07-31T17:51:59.032Z,98451.50
2022-07-31T17:54:28.273Z,98444.22
2022-07-31T17:57:00.974Z,98449.13
2022-07-31T17:59:31.268Z,98450.19
2022-07-31T18:02:00.826Z,98447.44
2022-07-31T18:04:29.584Z,98446.16
2022-07-31T18:07:00.729Z,98452.34
2022-07-31T18:09:31.250Z,98459.19
2022-07-31T18:12:00.957Z,98452.78
2022-07-31T18:14:28.860Z,98454.88
2022-07-31T18:16:56.906Z,98452.84
2022-07-31T18:19:24.804Z,98447.38
2022-07-31T18:21:53.398Z,98452.66
2022-07-31T18:24:22.271Z,98448.53
2022-07-31T18:26:53.791Z,98451.19
2022-07-31T18:29:23.191Z,98454.31
2022-07-31T18:31:51.616Z,98449.56
2022-07-31T18:34:19.607Z,98454.66
2022-07-31T18:36:54.572Z,98457.94
2022-07-31T18:39:23.415Z,98463.16
2022-07-31T18:41:51.432Z,98456.94
2022-07-31T18:44:21.303Z,98463.47
2022-07-31T18:46:53.665Z,98460.88
2022-07-31T18:51:00.947Z,98455.91
2022-07-31T18:52:10.338Z,98460.00
2022-07-31T18:54:38.935Z,98455.06
2022-07-31T18:57:07.785Z,98464.06
2022-07-31T18:59:36.234Z,98464.63
2022-07-31T19:02:08.563Z,98468.97
2022-07-31T19:04:39.437Z,98461.50
2022-07-31T19:07:10.107Z,98482.44
2022-07-31T19:09:38.266Z,98473.22
2022-07-31T19:12:08.975Z,98483.22
2022-07-31T19:14:37.053Z,98485.72
2022-07-31T19:17:07.057Z,98482.50
2022-07-31T19:19:43.521Z,98488.13
2022-07-31T19:22:23.318Z,98490.78
2022-07-31T19:24:51.632Z,98489.69
2022-07-31T19:27:20.310Z,98490.72
2022-07-31T19:29:48.213Z,98504.41
2022-07-31T19:32:17.734Z,98498.63
2022-07-31T19:34:48.056Z,98504.22
2022-07-31T19:37:18.174Z,98494.13
2022-07-31T19:39:46.817Z,98504.50
2022-07-31T19:42:17.205Z,98508.31
2022-07-31T19:44:45.095Z,98510.16
2022-07-31T19:47:14.984Z,98511.97
2022-07-31T19:49:46.748Z,98513.00
2022-07-31T19:52:15.270Z,98518.06
2022-07-31T19:54:45.444Z,98517.56
2022-07-31T19:57:13.263Z,98512.34
2022-07-31T19:59:41.055Z,98523.34
2022-07-31T20:02:09.032Z,98525.38
2022-07-31T20:04:37.815Z,98529.81
2022-07-31T20:07:07.060Z,98522.38
2022-07-31T20:09:37.576Z,98527.41
2022-07-31T20:12:06.365Z,98530.97
2022-07-31T20:14:34.676Z,98528.75
2022-07-31T20:17:05.148Z,98532.50
2022-07-31T20:19:32.954Z,98532.94
2022-07-31T20:22:00.772Z,98537.94
2022-07-31T20:24:30.705Z,98540.22
2022-07-31T20:26:58.632Z,98542.56
2022-07-31T20:29:28.649Z,98545.09
2022-07-31T20:31:56.438Z,98546.78
2022-07-31T20:34:25.755Z,98553.06
2022-07-31T20:36:55.323Z,98546.97
2022-07-31T20:39:33.406Z,98547.19
2022-07-31T20:42:05.608Z,98553.44
2022-07-31T20:44:33.789Z,98549.28
2022-07-31T20:47:01.683Z,98548.88
2022-07-31T20:49:35.467Z,98567.19
2022-07-31T20:52:04.497Z,98565.03
2022-07-31T20:54:34.437Z,98567.53
2022-07-31T20:57:03.993Z,98557.69
2022-07-31T20:59:32.241Z,98565.19
2022-07-31T21:02:00.386Z,98553.31
2022-07-31T21:04:30.248Z,98564.47
2022-07-31T21:06:59.685Z,98568.66
2022-07-31T21:09:27.524Z,98569.47
2022-07-31T21:11:55.346Z,98574.00
2022-07-31T21:14:26.977Z,98575.63
2022-07-31T21:16:55.134Z,98573.22
2022-07-31T21:19:22.988Z,98578.38
2022-07-31T21:21:51.285Z,98573.88
2022-07-31T21:24:19.916Z,98575.97
2022-07-31T21:26:54.097Z,98578.22
2022-07-31T21:29:28.315Z,98579.28
2022-07-31T21:31:59.422Z,98587.31
2022-07-31T21:34:27.850Z,98574.81
2022-07-31T21:36:55.956Z,98573.53
2022-07-31T21:39:28.600Z,98583.69
2022-07-31T21:41:57.119Z,98587.75
2022-07-31T21:44:25.323Z,98589.38
2022-07-31T21:46:56.716Z,98585.28
2022-07-31T21:49:25.697Z,98592.75
2022-07-31T21:51:54.053Z,98596.22
2022-07-31T21:54:21.831Z,98585.59
2022-07-31T21:56:49.675Z,98589.13
2022-07-31T21:59:17.505Z,98599.22
2022-07-31T22:01:57.383Z,98597.34
2022-07-31T22:04:35.128Z,98599.47
2022-07-31T22:07:20.785Z,98594.84
2022-07-31T22:09:48.642Z,98601.53
2022-07-31T22:12:16.483Z,98598.94
2022-07-31T22:14:44.640Z,98599.78
2022-07-31T22:17:13.069Z,98603.22
2022-07-31T22:19:47.153Z,98607.84
2022-07-31T22:22:16.478Z,98606.09
2022-07-31T22:24:46.933Z,98612.22
2022-07-31T22:27:32.687Z,98607.06
2022-07-31T22:30:01.698Z,98606.97
2022-07-31T22:32:29.810Z,98619.59
2022-07-31T22:34:59.408Z,98614.34
2022-07-31T22:37:27.969Z,98609.22
2022-07-31T22:39:56.171Z,98611.91
2022-07-31T22:42:24.239Z,98608.13
2022-07-31T22:44:52.582Z,98614.94
2022-07-31T22:47:20.712Z,98616.91
2022-07-31T22:49:48.761Z,98614.41
2022-07-31T22:52:18.285Z,98614.41
2022-07-31T22:54:46.341Z,98617.31
2022-07-31T22:57:15.028Z,98614.03
2022-07-31T22:59:44.054Z,98618.41
2022-07-31T23:02:14.500Z,98615.91
2022-07-31T23:04:45.014Z,98618.88
2022-07-31T23:07:12.830Z,98620.94
2022-07-31T23:09:42.026Z,98624.25
2022-07-31T23:12:10.736Z,98627.31
2022-07-31T23:14:40.616Z,98631.03
2022-07-31T23:17:08.416Z,98626.59
2022-07-31T23:19:36.230Z,98631.97
2022-07-31T23:22:04.409Z,98632.34
2022-07-31T23:24:32.572Z,98638.31
2022-07-31T23:27:08.093Z,98633.03
2022-07-31T23:29:41.520Z,98634.78
2022-07-31T23:32:09.640Z,98630.50
2022-07-31T23:34:37.503Z,98635.50
2022-07-31T23:37:05.711Z,98633.81
2022-07-31T23:39:33.651Z,98638.84
2022-07-31T23:42:20.442Z,98628.44
2022-07-31T23:44:48.212Z,98631.13
2022-07-31T23:47:17.782Z,98632.34
2022-07-31T23:49:45.611Z,98629.47
2022-07-31T23:52:13.580Z,98632.25
2022-07-31T23:54:43.922Z,98633.56
2022-07-31T23:57:13.122Z,98633.09
2022-07-31T23:59:41.019Z,98637.63
